sensor_id;sensor_type;location;lat;lon;timestamp;temperature;humidity
6956;DHT22;50345;51.136;16.886;2022-09-09T00:04:34;16.10;99.90
6956;DHT22;50345;51.136;16.886;2022-09-09T00:07:09;16.10;99.90
6956;DHT22;50345;51.136;16.886;2022-09-09T00:09:46;16.10;99.90
6956;DHT22;50345;51.136;16.886;2022-09-09T00:12:48;16.10;99.90
6956;DHT22;50345;51.136;16.886;2022-09-09T00:15:21;16.00;99.90
6956;DHT22;50345;51.136;16.886;2022-09-09T00:17:54;16.00;99.90
6956;DHT22;50345;51.136;16.886;2022-09-09T00:20:32;16.00;99.90
6956;DHT22;50345;51.136;16.886;2022-09-09T00:23:25;16.00;99.90
6956;DHT22;50345;51.136;16.886;2022-09-09T00:26:04;16.00;99.90
6956;DHT22;50345;51.136;16.886;2022-09-09T00:28:33;15.90;99.90
6956;DHT22;50345;51.136;16.886;2022-09-09T00:31:28;15.90;99.90
6956;DHT22;50345;51.136;16.886;2022-09-09T00:36:26;15.90;99.90
6956;DHT22;50345;51.136;16.886;2022-09-09T00:38:59;15.90;99.90
6956;DHT22;50345;51.136;16.886;2022-09-09T00:41:54;15.80;99.90
6956;DHT22;50345;51.136;16.886;2022-09-09T00:44:32;15.80;99.90
6956;DHT22;50345;51.136;16.886;2022-09-09T00:47:09;15.80;99.90
6956;DHT22;50345;51.136;16.886;2022-09-09T00:57:41;15.70;99.90
6956;DHT22;50345;51.136;16.886;2022-09-09T01:05:20;15.70;99.90
6956;DHT22;50345;51.136;16.886;2022-09-09T01:07:50;15.60;99.90
6956;DHT22;50345;51.136;16.886;2022-09-09T01:10:44;15.60;99.90
6956;DHT22;50345;51.136;16.886;2022-09-09T01:13:24;15.60;99.90
6956;DHT22;50345;51.136;16.886;2022-09-09T01:15:50;15.60;99.90
6956;DHT22;50345;51.136;16.886;2022-09-09T01:18:21;15.60;99.90
6956;DHT22;50345;51.136;16.886;2022-09-09T01:20:54;15.60;99.90
6956;DHT22;50345;51.136;16.886;2022-09-09T01:26:26;15.50;99.90
6956;DHT22;50345;51.136;16.886;2022-09-09T01:28:53;15.50;99.90
6956;DHT22;50345;51.136;16.886;2022-09-09T01:31:27;15.50;99.90
6956;DHT22;50345;51.136;16.886;2022-09-09T01:33:54;15.50;99.90
6956;DHT22;50345;51.136;16.886;2022-09-09T01:36:36;15.50;99.90
6956;DHT22;50345;51.136;16.886;2022-09-09T01:39:04;15.50;99.90
6956;DHT22;50345;51.136;16.886;2022-09-09T01:41:29;15.40;99.90
6956;DHT22;50345;51.136;16.886;2022-09-09T01:43:55;15.40;99.90
6956;DHT22;50345;51.136;16.886;2022-09-09T01:46:22;15.40;99.90
6956;DHT22;50345;51.136;16.886;2022-09-09T01:48:50;15.40;99.90
6956;DHT22;50345;51.136;16.886;2022-09-09T01:51:17;15.30;99.90
6956;DHT22;50345;51.136;16.886;2022-09-09T02:04:04;15.30;99.90
6956;DHT22;50345;51.136;16.886;2022-09-09T02:06:38;15.20;99.90
6956;DHT22;50345;51.136;16.886;2022-09-09T02:09:06;15.20;99.90
6956;DHT22;50345;51.136;16.886;2022-09-09T02:11:33;15.20;99.90
6956;DHT22;50345;51.136;16.886;2022-09-09T02:14:10;15.20;99.90
6956;DHT22;50345;51.136;16.886;2022-09-09T02:16:44;15.20;99.90
6956;DHT22;50345;51.136;16.886;2022-09-09T02:19:35;15.20;99.90
6956;DHT22;50345;51.136;16.886;2022-09-09T02:22:02;15.10;99.90
6956;DHT22;50345;51.136;16.886;2022-09-09T02:24:30;15.10;99.90
6956;DHT22;50345;51.136;16.886;2022-09-09T02:26:59;15.10;99.90
6956;DHT22;50345;51.136;16.886;2022-09-09T02:29:36;15.10;99.90
6956;DHT22;50345;51.136;16.886;2022-09-09T02:39:29;15.00;99.90
6956;DHT22;50345;51.136;16.886;2022-09-09T02:41:54;15.00;99.90
6956;DHT22;50345;51.136;16.886;2022-09-09T02:52:14;14.90;99.90
6956;DHT22;50345;51.136;16.886;2022-09-09T02:54:42;14.90;99.90
6956;DHT22;50345;51.136;16.886;2022-09-09T02:59:38;14.90;99.90
6956;DHT22;50345;51.136;16.886;2022-09-09T03:02:04;14.90;99.90
6956;DHT22;50345;51.136;16.886;2022-09-09T03:04:30;14.80;99.90
6956;DHT22;50345;51.136;16.886;2022-09-09T03:06:57;14.80;99.90
6956;DHT22;50345;51.136;16.886;2022-09-09T03:09:23;14.80;99.90
6956;DHT22;50345;51.136;16.886;2022-09-09T03:11:49;14.80;99.90
6956;DHT22;50345;51.136;16.886;2022-09-09T03:14:15;14.70;99.90
6956;DHT22;50345;51.136;16.886;2022-09-09T03:16:41;14.70;99.90
6956;DHT22;50345;51.136;16.886;2022-09-09T03:19:08;14.70;99.90
6956;DHT22;50345;51.136;16.886;2022-09-09T03:21:34;14.70;99.90
6956;DHT22;50345;51.136;16.886;2022-09-09T03:24:01;14.70;99.90
6956;DHT22;50345;51.136;16.886;2022-09-09T03:26:29;14.60;99.90
6956;DHT22;50345;51.136;16.886;2022-09-09T03:28:55;14.60;99.90
6956;DHT22;50345;51.136;16.886;2022-09-09T03:31:21;14.60;99.90
6956;DHT22;50345;51.136;16.886;2022-09-09T03:33:47;14.50;99.90
6956;DHT22;50345;51.136;16.886;2022-09-09T03:36:13;14.50;99.90
6956;DHT22;50345;51.136;16.886;2022-09-09T03:38:39;14.50;99.90
6956;DHT22;50345;51.136;16.886;2022-09-09T03:41:05;14.50;99.90
6956;DHT22;50345;51.136;16.886;2022-09-09T03:43:31;14.50;99.90
6956;DHT22;50345;51.136;16.886;2022-09-09T03:45:56;14.50;99.90
6956;DHT22;50345;51.136;16.886;2022-09-09T03:48:22;14.50;99.90
6956;DHT22;50345;51.136;16.886;2022-09-09T03:50:49;14.50;99.90
6956;DHT22;50345;51.136;16.886;2022-09-09T03:53:17;14.40;99.90
6956;DHT22;50345;51.136;16.886;2022-09-09T03:55:49;14.40;99.90
6956;DHT22;50345;51.136;16.886;2022-09-09T03:58:16;14.40;99.90
6956;DHT22;50345;51.136;16.886;2022-09-09T04:00:56;14.40;99.90
6956;DHT22;50345;51.136;16.886;2022-09-09T04:03:22;14.40;99.90
6956;DHT22;50345;51.136;16.886;2022-09-09T04:05:53;14.40;99.90
6956;DHT22;50345;51.136;16.886;2022-09-09T04:10:49;14.30;99.90
6956;DHT22;50345;51.136;16.886;2022-09-09T04:13:16;14.30;99.90
6956;DHT22;50345;51.136;16.886;2022-09-09T04:15:43;14.30;99.90
6956;DHT22;50345;51.136;16.886;2022-09-09T04:18:09;14.20;99.90
6956;DHT22;50345;51.136;16.886;2022-09-09T04:20:35;14.20;99.90
6956;DHT22;50345;51.136;16.886;2022-09-09T04:25:27;14.20;99.90
6956;DHT22;50345;51.136;16.886;2022-09-09T04:27:56;14.20;99.90
6956;DHT22;50345;51.136;16.886;2022-09-09T04:30:22;14.20;99.90
6956;DHT22;50345;51.136;16.886;2022-09-09T04:32:48;14.10;99.90
6956;DHT22;50345;51.136;16.886;2022-09-09T04:35:14;14.10;99.90
6956;DHT22;50345;51.136;16.886;2022-09-09T04:37:40;14.10;99.90
6956;DHT22;50345;51.136;16.886;2022-09-09T04:40:06;14.10;99.90
6956;DHT22;50345;51.136;16.886;2022-09-09T04:42:36;14.10;99.90
6956;DHT22;50345;51.136;16.886;2022-09-09T04:45:02;14.20;99.90
6956;DHT22;50345;51.136;16.886;2022-09-09T04:47:27;14.10;99.90
6956;DHT22;50345;51.136;16.886;2022-09-09T04:49:53;14.20;99.90
6956;DHT22;50345;51.136;16.886;2022-09-09T04:52:20;14.20;99.90
6956;DHT22;50345;51.136;16.886;2022-09-09T04:54:46;14.20;99.90
6956;DHT22;50345;51.136;16.886;2022-09-09T04:57:12;14.20;99.90
6956;DHT22;50345;51.136;16.886;2022-09-09T04:59:37;14.20;99.90
6956;DHT22;50345;51.136;16.886;2022-09-09T05:02:05;14.30;99.90
6956;DHT22;50345;51.136;16.886;2022-09-09T05:04:31;14.30;99.90
6956;DHT22;50345;51.136;16.886;2022-09-09T05:06:56;14.40;99.90
6956;DHT22;50345;51.136;16.886;2022-09-09T05:09:22;14.40;99.90
6956;DHT22;50345;51.136;16.886;2022-09-09T05:11:47;14.40;99.90
6956;DHT22;50345;51.136;16.886;2022-09-09T05:14:13;14.50;99.90
6956;DHT22;50345;51.136;16.886;2022-09-09T05:16:40;14.50;99.90
6956;DHT22;50345;51.136;16.886;2022-09-09T05:19:06;14.50;99.90
6956;DHT22;50345;51.136;16.886;2022-09-09T05:21:33;14.70;99.90
6956;DHT22;50345;51.136;16.886;2022-09-09T05:26:26;14.80;99.90
6956;DHT22;50345;51.136;16.886;2022-09-09T05:28:51;14.80;99.90
6956;DHT22;50345;51.136;16.886;2022-09-09T05:31:18;14.90;99.90
6956;DHT22;50345;51.136;16.886;2022-09-09T05:33:45;14.90;99.90
6956;DHT22;50345;51.136;16.886;2022-09-09T05:36:17;14.90;99.90
6956;DHT22;50345;51.136;16.886;2022-09-09T05:38:43;15.10;99.90
6956;DHT22;50345;51.136;16.886;2022-09-09T05:41:10;15.20;99.90
6956;DHT22;50345;51.136;16.886;2022-09-09T05:43:37;15.10;99.90
6956;DHT22;50345;51.136;16.886;2022-09-09T05:46:07;15.20;99.90
6956;DHT22;50345;51.136;16.886;2022-09-09T05:48:38;15.20;99.90
6956;DHT22;50345;51.136;16.886;2022-09-09T05:51:06;15.30;99.90
6956;DHT22;50345;51.136;16.886;2022-09-09T05:53:32;15.40;99.90
6956;DHT22;50345;51.136;16.886;2022-09-09T05:56:08;15.40;99.90
6956;DHT22;50345;51.136;16.886;2022-09-09T05:58:36;15.40;99.90
6956;DHT22;50345;51.136;16.886;2022-09-09T06:03:33;15.60;99.90
6956;DHT22;50345;51.136;16.886;2022-09-09T06:23:19;15.90;99.90
6956;DHT22;50345;51.136;16.886;2022-09-09T06:25:45;16.30;99.90
6956;DHT22;50345;51.136;16.886;2022-09-09T06:54:59;17.50;99.90
6956;DHT22;50345;51.136;16.886;2022-09-09T06:57:25;17.60;99.90
6956;DHT22;50345;51.136;16.886;2022-09-09T06:59:50;17.70;99.90
6956;DHT22;50345;51.136;16.886;2022-09-09T07:04:42;17.90;99.90
6956;DHT22;50345;51.136;16.886;2022-09-09T07:07:08;18.00;99.90
6956;DHT22;50345;51.136;16.886;2022-09-09T07:09:35;18.10;99.90
6956;DHT22;50345;51.136;16.886;2022-09-09T07:12:00;18.30;99.90
6956;DHT22;50345;51.136;16.886;2022-09-09T07:14:26;18.30;99.90
6956;DHT22;50345;51.136;16.886;2022-09-09T07:16:52;18.20;99.90
6956;DHT22;50345;51.136;16.886;2022-09-09T07:19:18;18.30;99.90
6956;DHT22;50345;51.136;16.886;2022-09-09T07:21:44;18.30;99.90
6956;DHT22;50345;51.136;16.886;2022-09-09T07:24:10;18.30;99.90
6956;DHT22;50345;51.136;16.886;2022-09-09T07:26:37;18.30;99.90
6956;DHT22;50345;51.136;16.886;2022-09-09T07:29:03;18.30;99.90
6956;DHT22;50345;51.136;16.886;2022-09-09T07:31:31;18.40;99.90
6956;DHT22;50345;51.136;16.886;2022-09-09T07:46:23;19.00;99.90
6956;DHT22;50345;51.136;16.886;2022-09-09T07:48:52;19.00;99.90
6956;DHT22;50345;51.136;16.886;2022-09-09T07:56:16;19.20;99.90
6956;DHT22;50345;51.136;16.886;2022-09-09T07:58:44;19.30;99.90
6956;DHT22;50345;51.136;16.886;2022-09-09T08:01:16;19.30;99.90
6956;DHT22;50345;51.136;16.886;2022-09-09T08:03:46;19.40;99.90
6956;DHT22;50345;51.136;16.886;2022-09-09T08:06:13;19.50;99.90
6956;DHT22;50345;51.136;16.886;2022-09-09T08:11:12;19.80;99.90
6956;DHT22;50345;51.136;16.886;2022-09-09T08:46:07;22.00;99.90
6956;DHT22;50345;51.136;16.886;2022-09-09T08:49:00;22.10;99.90
6956;DHT22;50345;51.136;16.886;2022-09-09T08:51:28;22.10;99.90
6956;DHT22;50345;51.136;16.886;2022-09-09T08:53:58;22.10;99.90
6956;DHT22;50345;51.136;16.886;2022-09-09T08:56:26;22.10;99.90
6956;DHT22;50345;51.136;16.886;2022-09-09T08:58:54;22.00;99.90
6956;DHT22;50345;51.136;16.886;2022-09-09T09:12:23;22.00;99.90
6956;DHT22;50345;51.136;16.886;2022-09-09T09:14:49;22.10;99.90
6956;DHT22;50345;51.136;16.886;2022-09-09T09:19:44;22.30;99.90
6956;DHT22;50345;51.136;16.886;2022-09-09T09:22:43;22.40;99.90
6956;DHT22;50345;51.136;16.886;2022-09-09T09:25:29;22.40;99.90
6956;DHT22;50345;51.136;16.886;2022-09-09T09:56:00;24.10;99.90
6956;DHT22;50345;51.136;16.886;2022-09-09T09:58:29;24.20;99.90
6956;DHT22;50345;51.136;16.886;2022-09-09T10:00:56;24.30;99.90
6956;DHT22;50345;51.136;16.886;2022-09-09T10:03:29;24.20;99.90
6956;DHT22;50345;51.136;16.886;2022-09-09T10:05:55;24.20;99.90
6956;DHT22;50345;51.136;16.886;2022-09-09T10:08:23;23.40;99.90
6956;DHT22;50345;51.136;16.886;2022-09-09T10:11:13;24.20;99.90
6956;DHT22;50345;51.136;16.886;2022-09-09T10:19:10;25.30;99.90
6956;DHT22;50345;51.136;16.886;2022-09-09T10:33:24;27.60;93.40
6956;DHT22;50345;51.136;16.886;2022-09-09T10:35:34;27.60;93.60
6956;DHT22;50345;51.136;16.886;2022-09-09T10:40:43;27.30;98.80
6956;DHT22;50345;51.136;16.886;2022-09-09T10:51:52;27.70;99.90
6956;DHT22;50345;51.136;16.886;2022-09-09T10:56:58;28.00;85.50
6956;DHT22;50345;51.136;16.886;2022-09-09T10:59:29;28.40;85.70
6956;DHT22;50345;51.136;16.886;2022-09-09T11:04:35;28.80;79.20
6956;DHT22;50345;51.136;16.886;2022-09-09T11:07:07;28.60;78.20
6956;DHT22;50345;51.136;16.886;2022-09-09T11:09:39;28.40;78.70
6956;DHT22;50345;51.136;16.886;2022-09-09T11:12:12;28.40;79.80
6956;DHT22;50345;51.136;16.886;2022-09-09T11:22:31;28.10;81.90
6956;DHT22;50345;51.136;16.886;2022-09-09T11:30:18;28.70;73.00
6956;DHT22;50345;51.136;16.886;2022-09-09T11:36:00;29.20;69.70
6956;DHT22;50345;51.136;16.886;2022-09-09T11:38:28;29.30;67.40
6956;DHT22;50345;51.136;16.886;2022-09-09T11:40:58;29.30;69.60
